ADDS METAR Data INFO
IDs: Format: Raw Decoded Include TAF

Data at: 1113 UTC 13 Dec 2017

KAZC 131055Z AUTO 11003KT 10SM CLR M06/M17 A3027 RMK AO2
KAZC 131035Z AUTO 15003KT 10SM CLR M07/M17 A3029 RMK AO2
KAZC 131015Z AUTO 13006KT 10SM CLR M07/M18 A3029 RMK AO2
KAZC 130955Z AUTO 12004KT 10SM CLR M06/M16 A3029 RMK AO2
KAZC 130935Z AUTO 11004KT 10SM CLR M06/M16 A3029 RMK AO2
KAZC 130915Z AUTO 00000KT 10SM CLR M06/M17 A3029 RMK AO2
KAZC 130855Z AUTO 12004KT 10SM CLR M03/M16 A3029 RMK AO2
KAZC 130835Z AUTO 11003KT 10SM CLR M05/M17 A3030 RMK AO2
KAZC 130815Z AUTO 00000KT 10SM CLR M03/M16 A3030 RMK AO2
KAZC 130755Z AUTO 12004KT 10SM CLR M02/M16 A3030 RMK AO2
KAZC 130735Z AUTO 12006KT 10SM CLR M02/M16 A3030 RMK AO2
KAZC 130715Z AUTO 10005KT 10SM CLR M01/M15 A3030 RMK AO2
KAZC 130655Z AUTO 14007KT 10SM CLR M03/M16 A3030 RMK AO2
KAZC 130635Z AUTO 13003KT 10SM CLR M01/M15 A3031 RMK AO2
KAZC 130615Z AUTO 00000KT 10SM CLR M01/M15 A3030 RMK AO2
KAZC 130555Z AUTO 00000KT 10SM CLR 00/M16 A3031 RMK AO2
KAZC 130535Z AUTO 15003KT 10SM CLR 01/M15 A3031 RMK AO2
KAZC 130515Z AUTO 00000KT 10SM CLR 05/M15 A3031 RMK AO2
KAZC 130455Z AUTO 00000KT 10SM CLR 03/M15 A3031 RMK AO2
KAZC 130435Z AUTO 05005KT 10SM CLR 06/M14 A3030 RMK AO2
KAZC 130415Z AUTO 06007KT 10SM CLR 06/M14 A3031 RMK AO2
KAZC 130355Z AUTO 05010KT 10SM CLR 09/M13 A3031 RMK AO2
KAZC 130335Z AUTO 06011KT 10SM CLR 10/M13 A3031 RMK AO2
KAZC 130315Z AUTO 05011KT 10SM CLR 10/M13 A3031 RMK AO2
KAZC 130255Z AUTO 05011KT 10SM CLR 09/M12 A3031 RMK AO2
KAZC 130235Z AUTO 06006KT 7SM CLR 01/M15 A3031 RMK AO2
KAZC 130215Z AUTO 11004KT 10SM CLR 02/M16 A3031 RMK AO2
KAZC 130155Z AUTO 00000KT 10SM CLR 05/M15 A3032 RMK AO2
KAZC 130135Z AUTO 00000KT 10SM CLR 05/M16 A3032 RMK AO2
KAZC 130115Z AUTO 00000KT 10SM CLR 06/M17 A3032 RMK AO2
KAZC 130055Z AUTO 00000KT 10SM CLR 07/M16 A3031 RMK AO2
KAZC 130035Z AUTO 00000KT 10SM CLR 12/M15 A3031 RMK AO2
KAZC 130015Z AUTO 00000KT 10SM CLR 15/M14 A3031 RMK AO2
KAZC 122355Z AUTO 00000KT 10SM CLR 16/M13 A3031 RMK AO2
KAZC 122335Z AUTO 10009KT 10SM CLR 17/M11 A3031 RMK AO2
KAZC 122315Z AUTO 12009KT 10SM CLR 18/M11 A3031 RMK AO2
KAZC 122255Z AUTO 11008KT 10SM CLR 20/M12 A3031 RMK AO2
KAZC 122235Z AUTO 08006KT 10SM CLR 20/M12 A3031 RMK AO2
KAZC 122215Z AUTO 04005KT 10SM CLR 20/M12 A3031 RMK AO2
KAZC 122155Z AUTO 33004KT 10SM CLR 20/M13 A3032 RMK AO2
KAZC 122135Z AUTO 00000KT 10SM CLR 20/M13 A3033 RMK AO2
KAZC 122115Z AUTO 06006KT 10SM CLR 21/M11 A3033 RMK AO2
KAZC 122055Z AUTO 31003KT 10SM CLR 20/M13 A3035 RMK AO2
KAZC 122035Z AUTO 00000KT 10SM CLR 19/M12 A3036 RMK AO2
KAZC 122015Z AUTO 35004KT 10SM CLR 18/M14 A3037 RMK AO2
KAZC 121955Z AUTO 33005KT 10SM CLR 17/M15 A3039 RMK AO2
KAZC 121935Z AUTO 32005KT 10SM CLR 16/M15 A3040 RMK AO2
KAZC 121915Z AUTO 00000KT 10SM CLR 15/M16 A3041 RMK AO2
KAZC 121855Z AUTO 00000KT 10SM CLR 13/M16 A3043 RMK AO2
KAZC 121835Z AUTO 00000KT 10SM CLR 12/M17 A3045 RMK AO2
KAZC 121815Z AUTO 00000KT 10SM CLR 11/M17 A3047 RMK AO2
KAZC 121755Z AUTO 00000KT 10SM CLR 10/M18 A3047 RMK AO2
KAZC 121735Z AUTO 00000KT 10SM CLR 08/M18 A3048 RMK AO2
KAZC 121715Z AUTO 00000KT 10SM CLR 06/M18 A3049 RMK AO2
KAZC 121655Z AUTO 00000KT 10SM CLR 05/M18 A3049 RMK AO2
KAZC 121635Z AUTO 00000KT 10SM CLR 02/M18 A3049 RMK AO2
KAZC 121615Z AUTO 00000KT 10SM CLR 00/M19 A3048 RMK AO2
KAZC 121555Z AUTO 00000KT 10SM CLR M02/M20 A3049 RMK AO2
KAZC 121535Z AUTO 00000KT 10SM CLR M04/M20 A3049 RMK AO2
KAZC 121515Z AUTO 00000KT 10SM CLR M07/M21 A3049 RMK AO2
KAZC 121455Z AUTO 00000KT 10SM CLR M10/M22 A3049 RMK AO2
KAZC 121435Z AUTO 11003KT 10SM CLR M11/M23 A3049 RMK AO2
KAZC 121415Z AUTO 12004KT 10SM CLR M10/M23 A3049 RMK AO2
KAZC 121355Z AUTO 00000KT 10SM CLR M09/M22 A3049 RMK AO2
KAZC 121335Z AUTO 12003KT 10SM CLR M11/M23 A3048 RMK AO2
KAZC 121315Z AUTO 12005KT 10SM CLR M11/M23 A3048 RMK AO2
KAZC 121255Z AUTO 12004KT 10SM CLR M11/M24 A3048 RMK AO2
KAZC 121235Z AUTO 00000KT 10SM CLR M10/M23 A3048 RMK AO2
KAZC 121215Z AUTO 10004KT 10SM CLR M11/M24 A3048 RMK AO2
KAZC 121155Z AUTO 13005KT 10SM CLR M09/M23 A3048 RMK AO2
KAZC 121135Z AUTO 12004KT 10SM CLR M10/M23 A3048 RMK AO2
KAZC 121115Z AUTO 12003KT 10SM CLR M10/M23 A3049 RMK AO2
KAZC 121055Z AUTO 13003KT 10SM CLR M10/M25 A3049 RMK AO2
KAZC 121035Z AUTO 00000KT 10SM CLR M10/M25 A3049 RMK AO2
KAZC 121015Z AUTO 09004KT 10SM CLR M09/M22 A3049 RMK AO2
KAZC 120955Z AUTO 12004KT 10SM CLR M10/M23 A3049 RMK AO2
KAZC 120935Z AUTO 00000KT 10SM CLR M10/M25 A3049 RMK AO2
KAZC 120915Z AUTO 15004KT 10SM CLR M10/M24 A3049 RMK AO2
KAZC 120855Z AUTO 14005KT 10SM CLR M09/M23 A3049 RMK AO2
KAZC 120835Z AUTO 13004KT 10SM CLR M10/M24 A3049 RMK AO2
KAZC 120815Z AUTO 13005KT 10SM CLR M09/M24 A3049 RMK AO2
KAZC 120755Z AUTO 13006KT 10SM CLR M10/M25 A3049 RMK AO2
KAZC 120735Z AUTO 12004KT 10SM CLR M10/M25 A3049 RMK AO2
KAZC 120715Z AUTO 00000KT 10SM CLR M08/M25 A3049 RMK AO2
KAZC 120655Z AUTO 00000KT 10SM CLR M10/M25 A3049 RMK AO2
KAZC 120635Z AUTO 00000KT 10SM CLR M08/M24 A3049 RMK AO2
KAZC 120615Z AUTO 10004KT 10SM CLR M09/M23 A3049 RMK AO2
KAZC 120555Z AUTO 00000KT 10SM CLR M07/M24 A3048 RMK AO2
KAZC 120535Z AUTO 13003KT 10SM CLR M06/M23 A3048 RMK AO2
KAZC 120515Z AUTO 00000KT 10SM CLR M06/M24 A3047 RMK AO2
KAZC 120455Z AUTO 12004KT 10SM CLR M06/M24 A3047 RMK AO2
KAZC 120435Z AUTO 13004KT 10SM CLR M03/M22 A3047 RMK AO2
KAZC 120415Z AUTO 11003KT 10SM CLR M04/M22 A3047 RMK AO2
KAZC 120355Z AUTO 14005KT 10SM CLR M06/M23 A3045 RMK AO2
KAZC 120335Z AUTO 14006KT 10SM CLR M05/M22 A3045 RMK AO2
KAZC 120315Z AUTO 14005KT 10SM CLR M05/M23 A3045 RMK AO2
KAZC 120255Z AUTO 16004KT 10SM CLR M04/M22 A3045 RMK AO2
KAZC 120235Z AUTO 12004KT 10SM CLR M05/M22 A3045 RMK AO2
KAZC 120215Z AUTO 12005KT 10SM CLR M03/M22 A3045 RMK AO2
KAZC 120155Z AUTO 00000KT 10SM CLR M02/M22 A3044 RMK AO2
KAZC 120135Z AUTO 11003KT 10SM CLR 00/M20 A3044 RMK AO2
KAZC 120115Z AUTO 07005KT 10SM CLR 00/M19 A3044 RMK AO2
KAZC 120055Z AUTO 04006KT 10SM CLR 03/M20 A3043 RMK AO2
KAZC 120035Z AUTO 02006KT 10SM CLR 05/M20 A3042 RMK AO2
KAZC 120015Z AUTO 01003KT 10SM CLR 10/M19 A3042 RMK AO2
KAZC 112355Z AUTO 35004KT 10SM CLR 12/M18 A3042 RMK AO2
KAZC 112335Z AUTO 00000KT 10SM CLR 14/M17 A3041 RMK AO2
KAZC 112315Z AUTO 33003KT 10SM CLR 15/M19 A3041 RMK AO2